Date,TemperatureHighF,TemperatureAvgF,TemperatureLowF,DewpointHighF,DewpointAvgF,DewpointLowF,HumidityHigh,HumidityAvg,HumidityLow,PressureMaxIn,PressureMinIn,WindSpeedMaxMPH,WindSpeedAvgMPH,GustSpeedMaxMPH,PrecipitationSumIn
2014-3-5,35.0,35.0,35.0,34.0,34.0,34.0,98,98,98,0.00,40.00,0,-999,0,0.00
2014-3-25,34.0,34.0,34.0,33.0,33.0,33.0,95,95,95,0.00,40.00,0,-999,0,0.00
2014-4-3,37.0,35.0,34.0,33.0,33.0,33.0,95,91,84,0.00,40.00,0,-999,0,0.00
2014-4-9,43.0,43.0,43.0,26.0,26.0,26.0,50,50,50,0.00,40.00,0,-999,0,0.00
2014-4-10,36.0,36.0,36.0,33.0,33.0,33.0,88,88,88,0.00,40.00,0,-999,0,0.00
2014-4-18,31.0,31.0,31.0,30.0,30.0,30.0,96,96,96,0.00,40.00,0,-999,0,0.00
2014-4-21,44.0,41.0,38.0,39.0,38.0,37.0,96,90,84,0.00,40.00,0,-999,0,0.03
2014-4-22,37.0,33.7,31.0,36.0,32.7,30.0,97,96,96,0.00,40.00,0,-999,0,0.11
2014-4-29,55.0,44.5,34.0,33.0,33.0,33.0,97,70,43,0.00,40.00,0,-999,0,0.00
2014-5-16,42.0,42.0,42.0,37.0,37.0,37.0,82,82,82,0.00,40.00,0,-999,0,0.00
2014-5-25,56.0,56.0,56.0,47.0,47.0,47.0,72,72,72,0.00,40.00,0,-999,0,0.00
2014-5-26,45.0,45.0,45.0,40.0,40.0,40.0,83,83,83,0.00,40.00,0,-999,0,0.00
2014-5-28,40.0,40.0,40.0,38.0,38.0,38.0,92,92,92,0.00,40.00,0,-999,0,0.00
2014-6-13,68.0,68.0,68.0,68.0,68.0,68.0,100,100,100,0.00,40.00,0,-999,0,0.00
2014-11-18,37.0,37.0,37.0,21.0,21.0,21.0,51,51,51,0.00,40.00,0,0,0,0.00
2014-11-20,36.0,36.0,36.0,35.0,35.0,35.0,96,96,96,0.00,40.00,0,0,0,0.00
2014-11-28,31.0,31.0,31.0,30.0,30.0,30.0,97,97,97,0.00,40.00,0,0,0,0.00
2014-11-29,19.0,19.0,19.0,17.0,17.0,17.0,93,93,93,0.00,40.00,0,0,0,0.00
2014-11-30,18.0,18.0,18.0,16.0,16.0,16.0,93,93,93,0.00,40.00,0,0,0,0.00
2014-12-1,33.0,26.7,20.0,32.0,25.3,18.0,95,93,90,0.00,40.00,0,0,0,0.00
2014-12-2,27.0,27.0,27.0,25.0,25.0,25.0,93,93,93,0.00,40.00,0,0,0,0.00
2014-12-3,24.0,24.0,24.0,22.0,22.0,22.0,93,93,93,0.00,40.00,0,0,0,0.00
2014-12-6,34.0,34.0,34.0,33.0,33.0,33.0,97,97,97,0.00,40.00,0,0,0,0.00
2014-12-10,44.0,43.5,43.0,42.0,42.0,42.0,98,96,94,0.00,40.00,0,0,0,0.00
2014-12-17,33.0,33.0,33.0,30.0,30.0,30.0,88,88,88,0.00,40.00,0,0,0,0.00
2014-12-20,46.0,46.0,46.0,45.0,45.0,45.0,97,97,97,0.00,40.00,0,0,0,0.00
2014-12-22,39.0,38.0,37.0,38.0,36.5,35.0,97,96,94,0.00,40.00,0,0,0,0.00
2014-12-27,33.0,32.2,31.0,32.0,31.2,30.0,98,97,96,0.00,40.00,0,0,0,0.11
2014-12-28,30.0,29.4,29.0,29.0,28.4,28.0,97,96,96,0.00,40.00,0,0,0,0.09
2014-12-29,28.0,27.0,26.0,27.0,26.0,25.0,95,95,94,0.00,40.00,0,0,0,0.03
2014-12-30,8.0,8.0,8.0,4.0,4.0,4.0,83,83,83,0.00,40.00,0,0,0,0.00
2015-1-1,25.0,25.0,25.0,23.0,23.0,23.0,92,92,92,0.00,40.00,0,0,0,0.00
2015-1-2,31.0,27.5,24.0,30.0,26.5,23.0,97,96,94,0.00,40.00,0,0,0,0.00